sensor_id;sensor_type;location;lat;lon;timestamp;P1;durP1;ratioP1;P2;durP2;ratioP2
5718;SDS011;2884;47.734;9.244;2023-03-01T00:01:11;23.80;;;14.85;;
5718;SDS011;2884;47.734;9.244;2023-03-01T00:03:41;26.52;;;14.73;;
5718;SDS011;2884;47.734;9.244;2023-03-01T00:06:07;21.67;;;14.70;;
5718;SDS011;2884;47.734;9.244;2023-03-01T00:08:32;20.00;;;13.43;;
5718;SDS011;2884;47.734;9.244;2023-03-01T00:11:21;18.23;;;13.07;;
5718;SDS011;2884;47.734;9.244;2023-03-01T00:13:45;23.38;;;14.80;;
5718;SDS011;2884;47.734;9.244;2023-03-01T00:16:13;21.50;;;14.68;;
5718;SDS011;2884;47.734;9.244;2023-03-01T00:18:40;21.15;;;14.85;;
5718;SDS011;2884;47.734;9.244;2023-03-01T00:21:06;20.23;;;13.90;;
5718;SDS011;2884;47.734;9.244;2023-03-01T00:23:36;20.20;;;13.47;;
5718;SDS011;2884;47.734;9.244;2023-03-01T00:26:02;24.27;;;14.73;;
5718;SDS011;2884;47.734;9.244;2023-03-01T00:28:31;26.95;;;15.48;;
5718;SDS011;2884;47.734;9.244;2023-03-01T00:31:02;22.70;;;14.60;;
5718;SDS011;2884;47.734;9.244;2023-03-01T00:33:29;24.85;;;15.60;;
5718;SDS011;2884;47.734;9.244;2023-03-01T00:35:54;21.47;;;14.60;;
5718;SDS011;2884;47.734;9.244;2023-03-01T00:38:20;21.33;;;14.57;;
5718;SDS011;2884;47.734;9.244;2023-03-01T00:40:45;24.70;;;14.80;;
5718;SDS011;2884;47.734;9.244;2023-03-01T00:43:13;23.88;;;16.35;;
5718;SDS011;2884;47.734;9.244;2023-03-01T00:45:42;22.97;;;14.90;;
5718;SDS011;2884;47.734;9.244;2023-03-01T00:48:08;23.23;;;15.43;;
5718;SDS011;2884;47.734;9.244;2023-03-01T00:50:33;18.80;;;13.83;;
5718;SDS011;2884;47.734;9.244;2023-03-01T00:52:59;24.30;;;15.57;;
5718;SDS011;2884;47.734;9.244;2023-03-01T00:55:28;26.98;;;16.17;;
5718;SDS011;2884;47.734;9.244;2023-03-01T00:57:53;21.80;;;15.90;;
5718;SDS011;2884;47.734;9.244;2023-03-01T01:00:22;23.50;;;14.87;;
5718;SDS011;2884;47.734;9.244;2023-03-01T01:02:48;22.30;;;14.77;;
5718;SDS011;2884;47.734;9.244;2023-03-01T01:05:13;24.03;;;16.57;;
5718;SDS011;2884;47.734;9.244;2023-03-01T01:07:42;25.48;;;16.05;;
5718;SDS011;2884;47.734;9.244;2023-03-01T01:10:08;23.65;;;16.00;;
5718;SDS011;2884;47.734;9.244;2023-03-01T01:12:37;21.10;;;15.05;;
5718;SDS011;2884;47.734;9.244;2023-03-01T01:15:04;23.53;;;15.97;;
5718;SDS011;2884;47.734;9.244;2023-03-01T01:17:30;24.08;;;16.70;;
5718;SDS011;2884;47.734;9.244;2023-03-01T01:19:55;25.37;;;15.87;;
5718;SDS011;2884;47.734;9.244;2023-03-01T01:22:21;22.77;;;16.23;;
5718;SDS011;2884;47.734;9.244;2023-03-01T01:24:47;20.13;;;14.70;;
5718;SDS011;2884;47.734;9.244;2023-03-01T01:27:12;25.17;;;15.60;;
5718;SDS011;2884;47.734;9.244;2023-03-01T01:29:38;24.03;;;15.67;;
5718;SDS011;2884;47.734;9.244;2023-03-01T01:32:03;25.07;;;15.83;;
5718;SDS011;2884;47.734;9.244;2023-03-01T01:34:29;27.20;;;16.60;;
5718;SDS011;2884;47.734;9.244;2023-03-01T01:36:55;23.53;;;16.27;;
5718;SDS011;2884;47.734;9.244;2023-03-01T01:39:21;24.23;;;16.33;;
5718;SDS011;2884;47.734;9.244;2023-03-01T01:41:47;23.60;;;15.30;;
5718;SDS011;2884;47.734;9.244;2023-03-01T01:44:21;22.02;;;14.98;;
5718;SDS011;2884;47.734;9.244;2023-03-01T01:46:51;26.67;;;16.20;;
5718;SDS011;2884;47.734;9.244;2023-03-01T01:51:49;20.63;;;15.15;;
5718;SDS011;2884;47.734;9.244;2023-03-01T01:54:21;22.10;;;16.23;;
5718;SDS011;2884;47.734;9.244;2023-03-01T01:56:52;23.48;;;16.58;;
5718;SDS011;2884;47.734;9.244;2023-03-01T01:59:21;22.83;;;15.52;;
5718;SDS011;2884;47.734;9.244;2023-03-01T02:01:50;22.42;;;15.70;;
5718;SDS011;2884;47.734;9.244;2023-03-01T02:04:18;22.30;;;15.43;;
5718;SDS011;2884;47.734;9.244;2023-03-01T02:06:48;24.20;;;15.77;;
5718;SDS011;2884;47.734;9.244;2023-03-01T02:09:19;23.75;;;16.10;;
5718;SDS011;2884;47.734;9.244;2023-03-01T02:11:46;22.95;;;15.40;;
5718;SDS011;2884;47.734;9.244;2023-03-01T02:14:12;34.38;;;17.90;;
5718;SDS011;2884;47.734;9.244;2023-03-01T02:16:38;21.93;;;14.70;;
5718;SDS011;2884;47.734;9.244;2023-03-01T02:19:03;25.30;;;16.70;;
5718;SDS011;2884;47.734;9.244;2023-03-01T02:24:24;27.88;;;16.70;;
5718;SDS011;2884;47.734;9.244;2023-03-01T02:26:52;28.85;;;17.10;;
5718;SDS011;2884;47.734;9.244;2023-03-01T02:29:21;24.75;;;16.58;;
5718;SDS011;2884;47.734;9.244;2023-03-01T02:31:48;24.80;;;15.13;;
5718;SDS011;2884;47.734;9.244;2023-03-01T02:34:18;26.02;;;16.13;;
5718;SDS011;2884;47.734;9.244;2023-03-01T02:36:48;22.42;;;15.07;;
5718;SDS011;2884;47.734;9.244;2023-03-01T02:39:17;24.95;;;15.95;;
5718;SDS011;2884;47.734;9.244;2023-03-01T02:41:48;24.17;;;15.35;;
5718;SDS011;2884;47.734;9.244;2023-03-01T02:44:18;26.55;;;16.13;;
5718;SDS011;2884;47.734;9.244;2023-03-01T02:46:45;24.67;;;14.93;;
5718;SDS011;2884;47.734;9.244;2023-03-01T02:49:26;22.33;;;14.40;;
5718;SDS011;2884;47.734;9.244;2023-03-01T02:57:25;23.83;;;14.52;;
5718;SDS011;2884;47.734;9.244;2023-03-01T02:59:53;23.23;;;14.80;;
5718;SDS011;2884;47.734;9.244;2023-03-01T03:02:24;23.15;;;14.82;;
5718;SDS011;2884;47.734;9.244;2023-03-01T03:05:10;23.50;;;15.18;;
5718;SDS011;2884;47.734;9.244;2023-03-01T03:07:38;25.60;;;16.23;;
5718;SDS011;2884;47.734;9.244;2023-03-01T03:10:08;23.45;;;15.25;;
5718;SDS011;2884;47.734;9.244;2023-03-01T03:12:36;24.88;;;14.63;;
5718;SDS011;2884;47.734;9.244;2023-03-01T03:15:02;29.50;;;15.40;;
5718;SDS011;2884;47.734;9.244;2023-03-01T03:17:37;24.13;;;15.60;;
5718;SDS011;2884;47.734;9.244;2023-03-01T03:20:04;23.15;;;14.48;;
5718;SDS011;2884;47.734;9.244;2023-03-01T03:22:31;22.40;;;14.30;;
5718;SDS011;2884;47.734;9.244;2023-03-01T03:24:59;26.70;;;14.48;;
5718;SDS011;2884;47.734;9.244;2023-03-01T03:27:24;27.17;;;17.27;;
5718;SDS011;2884;47.734;9.244;2023-03-01T03:29:50;27.30;;;16.73;;
5718;SDS011;2884;47.734;9.244;2023-03-01T03:32:16;23.60;;;15.60;;
5718;SDS011;2884;47.734;9.244;2023-03-01T03:34:41;26.93;;;15.20;;
5718;SDS011;2884;47.734;9.244;2023-03-01T03:37:06;27.17;;;16.93;;
5718;SDS011;2884;47.734;9.244;2023-03-01T03:39:52;23.58;;;15.10;;
5718;SDS011;2884;47.734;9.244;2023-03-01T03:42:20;24.33;;;15.43;;
5718;SDS011;2884;47.734;9.244;2023-03-01T03:44:47;25.73;;;16.63;;
5718;SDS011;2884;47.734;9.244;2023-03-01T03:47:13;30.20;;;17.10;;
5718;SDS011;2884;47.734;9.244;2023-03-01T03:49:38;24.97;;;15.80;;
5718;SDS011;2884;47.734;9.244;2023-03-01T03:52:04;22.90;;;15.30;;
5718;SDS011;2884;47.734;9.244;2023-03-01T03:54:30;23.40;;;15.77;;
5718;SDS011;2884;47.734;9.244;2023-03-01T03:56:55;25.17;;;16.00;;
5718;SDS011;2884;47.734;9.244;2023-03-01T03:59:21;24.30;;;16.10;;
5718;SDS011;2884;47.734;9.244;2023-03-01T04:01:46;25.03;;;14.53;;
5718;SDS011;2884;47.734;9.244;2023-03-01T04:04:12;22.77;;;15.07;;
5718;SDS011;2884;47.734;9.244;2023-03-01T04:06:38;25.27;;;16.73;;
5718;SDS011;2884;47.734;9.244;2023-03-01T04:09:04;22.60;;;15.13;;
5718;SDS011;2884;47.734;9.244;2023-03-01T04:11:29;24.27;;;15.30;;
5718;SDS011;2884;47.734;9.244;2023-03-01T04:13:57;27.47;;;16.60;;
5718;SDS011;2884;47.734;9.244;2023-03-01T04:16:24;24.63;;;15.48;;
5718;SDS011;2884;47.734;9.244;2023-03-01T04:18:50;29.23;;;16.07;;
5718;SDS011;2884;47.734;9.244;2023-03-01T04:21:15;26.70;;;15.73;;
5718;SDS011;2884;47.734;9.244;2023-03-01T04:23:41;26.30;;;15.87;;
5718;SDS011;2884;47.734;9.244;2023-03-01T04:26:07;23.80;;;15.20;;
5718;SDS011;2884;47.734;9.244;2023-03-01T04:28:34;23.27;;;15.43;;
5718;SDS011;2884;47.734;9.244;2023-03-01T04:31:11;26.67;;;17.10;;
5718;SDS011;2884;47.734;9.244;2023-03-01T04:33:42;22.70;;;15.88;;
5718;SDS011;2884;47.734;9.244;2023-03-01T04:36:10;22.27;;;15.23;;
5718;SDS011;2884;47.734;9.244;2023-03-01T04:38:37;26.25;;;16.60;;
5718;SDS011;2884;47.734;9.244;2023-03-01T04:41:04;26.33;;;16.23;;
5718;SDS011;2884;47.734;9.244;2023-03-01T04:43:31;27.70;;;15.80;;
5718;SDS011;2884;47.734;9.244;2023-03-01T04:46:04;25.57;;;16.30;;
5718;SDS011;2884;47.734;9.244;2023-03-01T04:48:33;22.45;;;14.88;;
5718;SDS011;2884;47.734;9.244;2023-03-01T04:50:59;25.60;;;16.05;;
5718;SDS011;2884;47.734;9.244;2023-03-01T04:53:25;23.60;;;15.83;;
5718;SDS011;2884;47.734;9.244;2023-03-01T04:55:51;29.13;;;17.33;;
5718;SDS011;2884;47.734;9.244;2023-03-01T04:58:19;25.88;;;15.77;;
5718;SDS011;2884;47.734;9.244;2023-03-01T05:00:44;24.07;;;16.10;;
5718;SDS011;2884;47.734;9.244;2023-03-01T05:03:10;25.83;;;15.30;;
5718;SDS011;2884;47.734;9.244;2023-03-01T05:05:36;23.33;;;13.90;;
5718;SDS011;2884;47.734;9.244;2023-03-01T05:08:06;21.95;;;14.63;;
5718;SDS011;2884;47.734;9.244;2023-03-01T05:10:34;25.88;;;15.60;;
5718;SDS011;2884;47.734;9.244;2023-03-01T05:13:01;24.90;;;14.85;;
5718;SDS011;2884;47.734;9.244;2023-03-01T05:15:28;24.08;;;15.18;;
5718;SDS011;2884;47.734;9.244;2023-03-01T05:17:55;24.52;;;16.15;;
5718;SDS011;2884;47.734;9.244;2023-03-01T05:20:23;25.02;;;16.17;;
5718;SDS011;2884;47.734;9.244;2023-03-01T05:22:49;24.50;;;15.43;;
5718;SDS011;2884;47.734;9.244;2023-03-01T05:25:20;22.13;;;13.88;;
5718;SDS011;2884;47.734;9.244;2023-03-01T05:27:46;23.05;;;15.25;;
5718;SDS011;2884;47.734;9.244;2023-03-01T05:30:12;25.40;;;15.60;;
5718;SDS011;2884;47.734;9.244;2023-03-01T05:32:45;27.00;;;16.10;;
5718;SDS011;2884;47.734;9.244;2023-03-01T05:35:16;24.15;;;15.75;;
5718;SDS011;2884;47.734;9.244;2023-03-01T05:37:43;23.35;;;16.15;;
5718;SDS011;2884;47.734;9.244;2023-03-01T05:40:10;28.70;;;16.67;;
5718;SDS011;2884;47.734;9.244;2023-03-01T05:45:10;26.30;;;15.07;;
5718;SDS011;2884;47.734;9.244;2023-03-01T05:47:37;28.67;;;15.57;;
5718;SDS011;2884;47.734;9.244;2023-03-01T05:50:20;25.20;;;15.23;;
5718;SDS011;2884;47.734;9.244;2023-03-01T05:52:57;25.27;;;16.55;;
5718;SDS011;2884;47.734;9.244;2023-03-01T05:55:33;26.42;;;16.95;;
5718;SDS011;2884;47.734;9.244;2023-03-01T05:58:02;24.77;;;16.38;;
5718;SDS011;2884;47.734;9.244;2023-03-01T06:00:30;24.88;;;15.43;;
5718;SDS011;2884;47.734;9.244;2023-03-01T06:02:59;25.27;;;16.55;;
5718;SDS011;2884;47.734;9.244;2023-03-01T06:09:19;22.80;;;15.90;;
5718;SDS011;2884;47.734;9.244;2023-03-01T06:12:32;24.70;;;14.80;;
5718;SDS011;2884;47.734;9.244;2023-03-01T06:15:06;27.35;;;15.93;;
5718;SDS011;2884;47.734;9.244;2023-03-01T06:17:35;28.60;;;16.58;;
5718;SDS011;2884;47.734;9.244;2023-03-01T06:20:07;24.00;;;16.60;;
5718;SDS011;2884;47.734;9.244;2023-03-01T06:22:35;27.20;;;16.23;;
5718;SDS011;2884;47.734;9.244;2023-03-01T06:25:00;32.13;;;18.40;;
5718;SDS011;2884;47.734;9.244;2023-03-01T06:27:26;26.87;;;16.77;;
5718;SDS011;2884;47.734;9.244;2023-03-01T06:29:52;31.63;;;18.00;;
5718;SDS011;2884;47.734;9.244;2023-03-01T06:32:17;28.60;;;17.70;;
5718;SDS011;2884;47.734;9.244;2023-03-01T06:34:43;26.47;;;17.07;;
5718;SDS011;2884;47.734;9.244;2023-03-01T06:37:09;26.43;;;16.47;;
5718;SDS011;2884;47.734;9.244;2023-03-01T06:39:34;27.33;;;15.70;;
5718;SDS011;2884;47.734;9.244;2023-03-01T06:42:00;30.67;;;17.60;;
5718;SDS011;2884;47.734;9.244;2023-03-01T06:44:26;26.30;;;17.00;;
5718;SDS011;2884;47.734;9.244;2023-03-01T06:46:52;27.97;;;17.40;;
5718;SDS011;2884;47.734;9.244;2023-03-01T06:49:17;23.70;;;15.80;;
5718;SDS011;2884;47.734;9.244;2023-03-01T06:51:43;31.20;;;16.27;;
5718;SDS011;2884;47.734;9.244;2023-03-01T06:54:09;27.55;;;17.65;;
5718;SDS011;2884;47.734;9.244;2023-03-01T06:56:35;28.95;;;17.65;;
5718;SDS011;2884;47.734;9.244;2023-03-01T06:59:01;22.90;;;15.53;;
5718;SDS011;2884;47.734;9.244;2023-03-01T07:01:28;27.98;;;18.00;;
5718;SDS011;2884;47.734;9.244;2023-03-01T07:03:54;24.85;;;16.20;;
5718;SDS011;2884;47.734;9.244;2023-03-01T07:06:20;29.53;;;17.90;;
5718;SDS011;2884;47.734;9.244;2023-03-01T07:08:46;27.52;;;16.92;;
5718;SDS011;2884;47.734;9.244;2023-03-01T07:11:12;31.50;;;17.33;;
5718;SDS011;2884;47.734;9.244;2023-03-01T07:13:37;26.20;;;17.33;;
5718;SDS011;2884;47.734;9.244;2023-03-01T07:16:26;28.45;;;17.70;;
5718;SDS011;2884;47.734;9.244;2023-03-01T07:18:51;25.67;;;17.23;;
5718;SDS011;2884;47.734;9.244;2023-03-01T07:21:17;29.03;;;18.70;;
5718;SDS011;2884;47.734;9.244;2023-03-01T07:23:42;28.83;;;19.13;;
5718;SDS011;2884;47.734;9.244;2023-03-01T07:26:08;27.60;;;17.70;;
5718;SDS011;2884;47.734;9.244;2023-03-01T07:28:34;30.37;;;18.57;;
5718;SDS011;2884;47.734;9.244;2023-03-01T07:31:03;26.15;;;15.85;;
5718;SDS011;2884;47.734;9.244;2023-03-01T07:33:29;30.08;;;18.73;;
5718;SDS011;2884;47.734;9.244;2023-03-01T07:35:58;26.13;;;17.47;;
5718;SDS011;2884;47.734;9.244;2023-03-01T07:38:25;30.70;;;19.55;;
5718;SDS011;2884;47.734;9.244;2023-03-01T07:40:51;28.85;;;17.20;;
5718;SDS011;2884;47.734;9.244;2023-03-01T07:43:17;27.67;;;17.77;;
5718;SDS011;2884;47.734;9.244;2023-03-01T07:45:42;31.70;;;18.40;;
5718;SDS011;2884;47.734;9.244;2023-03-01T07:48:08;27.93;;;17.33;;
5718;SDS011;2884;47.734;9.244;2023-03-01T07:50:34;32.10;;;16.50;;
5718;SDS011;2884;47.734;9.244;2023-03-01T07:53:00;30.30;;;18.10;;
5718;SDS011;2884;47.734;9.244;2023-03-01T07:55:26;27.60;;;16.37;;
5718;SDS011;2884;47.734;9.244;2023-03-01T07:57:51;25.90;;;15.90;;
5718;SDS011;2884;47.734;9.244;2023-03-01T08:00:17;24.30;;;16.20;;
5718;SDS011;2884;47.734;9.244;2023-03-01T08:02:43;28.45;;;17.10;;
5718;SDS011;2884;47.734;9.244;2023-03-01T08:05:08;29.90;;;17.90;;
5718;SDS011;2884;47.734;9.244;2023-03-01T08:07:35;27.80;;;18.50;;
5718;SDS011;2884;47.734;9.244;2023-03-01T08:10:00;27.00;;;16.17;;
5718;SDS011;2884;47.734;9.244;2023-03-01T08:12:26;26.87;;;16.80;;
5718;SDS011;2884;47.734;9.244;2023-03-01T08:14:53;25.00;;;16.23;;
5718;SDS011;2884;47.734;9.244;2023-03-01T08:17:19;23.35;;;16.17;;
5718;SDS011;2884;47.734;9.244;2023-03-01T08:19:44;31.70;;;17.77;;
5718;SDS011;2884;47.734;9.244;2023-03-01T08:22:10;29.07;;;17.53;;
5718;SDS011;2884;47.734;9.244;2023-03-01T08:24:36;29.60;;;16.90;;
5718;SDS011;2884;47.734;9.244;2023-03-01T08:27:01;27.50;;;16.70;;
5718;SDS011;2884;47.734;9.244;2023-03-01T08:29:28;26.25;;;16.73;;
5718;SDS011;2884;47.734;9.244;2023-03-01T08:31:56;28.65;;;16.17;;
5718;SDS011;2884;47.734;9.244;2023-03-01T08:34:21;26.03;;;17.37;;
5718;SDS011;2884;47.734;9.244;2023-03-01T08:36:47;29.63;;;18.00;;
5718;SDS011;2884;47.734;9.244;2023-03-01T08:39:14;24.30;;;15.90;;
5718;SDS011;2884;47.734;9.244;2023-03-01T08:41:41;25.98;;;16.25;;
5718;SDS011;2884;47.734;9.244;2023-03-01T08:44:08;25.50;;;16.60;;
5718;SDS011;2884;47.734;9.244;2023-03-01T08:46:36;30.75;;;16.67;;
5718;SDS011;2884;47.734;9.244;2023-03-01T08:49:03;28.08;;;16.65;;
5718;SDS011;2884;47.734;9.244;2023-03-01T08:51:33;29.48;;;16.33;;
5718;SDS011;2884;47.734;9.244;2023-03-01T08:54:05;28.92;;;17.17;;
5718;SDS011;2884;47.734;9.244;2023-03-01T08:56:31;31.63;;;18.30;;
5718;SDS011;2884;47.734;9.244;2023-03-01T08:58:57;27.30;;;17.27;;
5718;SDS011;2884;47.734;9.244;2023-03-01T09:01:23;23.43;;;15.97;;
5718;SDS011;2884;47.734;9.244;2023-03-01T09:03:48;26.97;;;16.77;;
5718;SDS011;2884;47.734;9.244;2023-03-01T09:06:14;32.63;;;18.10;;
5718;SDS011;2884;47.734;9.244;2023-03-01T09:08:42;25.80;;;14.60;;
5718;SDS011;2884;47.734;9.244;2023-03-01T09:11:09;25.92;;;16.58;;
5718;SDS011;2884;47.734;9.244;2023-03-01T09:13:35;25.88;;;16.35;;
5718;SDS011;2884;47.734;9.244;2023-03-01T09:16:02;26.60;;;17.80;;
5718;SDS011;2884;47.734;9.244;2023-03-01T09:18:29;29.13;;;16.80;;
5718;SDS011;2884;47.734;9.244;2023-03-01T09:21:09;28.30;;;16.87;;
5718;SDS011;2884;47.734;9.244;2023-03-01T09:23:38;30.92;;;18.00;;
5718;SDS011;2884;47.734;9.244;2023-03-01T09:26:05;23.80;;;15.80;;
5718;SDS011;2884;47.734;9.244;2023-03-01T09:28:31;24.05;;;16.65;;
5718;SDS011;2884;47.734;9.244;2023-03-01T09:30:58;27.10;;;16.27;;
5718;SDS011;2884;47.734;9.244;2023-03-01T09:33:24;34.85;;;17.73;;
5718;SDS011;2884;47.734;9.244;2023-03-01T09:35:55;24.77;;;15.90;;
5718;SDS011;2884;47.734;9.244;2023-03-01T09:38:25;27.75;;;17.30;;
5718;SDS011;2884;47.734;9.244;2023-03-01T09:40:51;26.45;;;15.73;;
5718;SDS011;2884;47.734;9.244;2023-03-01T09:43:41;24.53;;;15.37;;
5718;SDS011;2884;47.734;9.244;2023-03-01T09:46:13;25.40;;;15.77;;
5718;SDS011;2884;47.734;9.244;2023-03-01T09:48:44;24.95;;;16.02;;
5718;SDS011;2884;47.734;9.244;2023-03-01T09:51:17;24.58;;;16.13;;
5718;SDS011;2884;47.734;9.244;2023-03-01T09:53:44;24.77;;;16.35;;
5718;SDS011;2884;47.734;9.244;2023-03-01T09:56:16;29.10;;;16.60;;
5718;SDS011;2884;47.734;9.244;2023-03-01T09:58:53;26.90;;;16.75;;
5718;SDS011;2884;47.734;9.244;2023-03-01T10:01:43;29.10;;;16.33;;
5718;SDS011;2884;47.734;9.244;2023-03-01T10:09:38;29.75;;;15.98;;
5718;SDS011;2884;47.734;9.244;2023-03-01T10:12:12;24.88;;;15.70;;
5718;SDS011;2884;47.734;9.244;2023-03-01T10:14:48;31.65;;;17.55;;
5718;SDS011;2884;47.734;9.244;2023-03-01T10:17:24;30.98;;;17.42;;
5718;SDS011;2884;47.734;9.244;2023-03-01T10:19:53;27.20;;;16.50;;
5718;SDS011;2884;47.734;9.244;2023-03-01T10:22:21;23.90;;;15.07;;
5718;SDS011;2884;47.734;9.244;2023-03-01T10:24:53;22.55;;;15.18;;
5718;SDS011;2884;47.734;9.244;2023-03-01T10:32:56;25.05;;;16.75;;
5718;SDS011;2884;47.734;9.244;2023-03-01T10:35:24;27.35;;;16.58;;
5718;SDS011;2884;47.734;9.244;2023-03-01T10:38:02;32.25;;;16.80;;
5718;SDS011;2884;47.734;9.244;2023-03-01T10:40:35;24.27;;;15.90;;
5718;SDS011;2884;47.734;9.244;2023-03-01T10:43:02;33.65;;;17.80;;
5718;SDS011;2884;47.734;9.244;2023-03-01T10:50:49;25.35;;;15.63;;
5718;SDS011;2884;47.734;9.244;2023-03-01T10:53:21;22.35;;;15.98;;
5718;SDS011;2884;47.734;9.244;2023-03-01T11:01:26;22.92;;;14.85;;
5718;SDS011;2884;47.734;9.244;2023-03-01T11:06:32;24.38;;;15.60;;
5718;SDS011;2884;47.734;9.244;2023-03-01T11:09:21;25.60;;;14.73;;
5718;SDS011;2884;47.734;9.244;2023-03-01T11:11:55;23.35;;;14.80;;
5718;SDS011;2884;47.734;9.244;2023-03-01T11:14:22;29.77;;;16.65;;
5718;SDS011;2884;47.734;9.244;2023-03-01T11:17:03;25.50;;;16.23;;
5718;SDS011;2884;47.734;9.244;2023-03-01T11:19:48;26.90;;;16.67;;
5718;SDS011;2884;47.734;9.244;2023-03-01T11:23:02;24.25;;;15.80;;
5718;SDS011;2884;47.734;9.244;2023-03-01T11:25:38;26.83;;;16.48;;
5718;SDS011;2884;47.734;9.244;2023-03-01T11:28:07;28.08;;;16.13;;
5718;SDS011;2884;47.734;9.244;2023-03-01T11:30:43;27.42;;;16.70;;
5718;SDS011;2884;47.734;9.244;2023-03-01T11:33:13;22.33;;;15.75;;
5718;SDS011;2884;47.734;9.244;2023-03-01T11:36:22;31.52;;;17.08;;
5718;SDS011;2884;47.734;9.244;2023-03-01T11:38:43;26.25;;;16.02;;
5718;SDS011;2884;47.734;9.244;2023-03-01T11:41:14;25.40;;;16.37;;
5718;SDS011;2884;47.734;9.244;2023-03-01T11:43:53;25.75;;;15.63;;
5718;SDS011;2884;47.734;9.244;2023-03-01T11:49:16;24.95;;;15.10;;
5718;SDS011;2884;47.734;9.244;2023-03-01T11:52:05;26.50;;;16.48;;
5718;SDS011;2884;47.734;9.244;2023-03-01T12:03:28;30.70;;;15.70;;
5718;SDS011;2884;47.734;9.244;2023-03-01T12:37:42;24.55;;;15.27;;
5718;SDS011;2884;47.734;9.244;2023-03-01T12:40:45;26.70;;;16.90;;
5718;SDS011;2884;47.734;9.244;2023-03-01T12:46:19;30.58;;;16.60;;
5718;SDS011;2884;47.734;9.244;2023-03-01T12:48:54;24.30;;;15.55;;
5718;SDS011;2884;47.734;9.244;2023-03-01T12:51:32;28.63;;;16.50;;
5718;SDS011;2884;47.734;9.244;2023-03-01T12:53:59;27.80;;;16.42;;
5718;SDS011;2884;47.734;9.244;2023-03-01T12:56:31;23.45;;;14.65;;
5718;SDS011;2884;47.734;9.244;2023-03-01T13:04:35;31.13;;;17.38;;
5718;SDS011;2884;47.734;9.244;2023-03-01T13:09:41;28.67;;;16.08;;
5718;SDS011;2884;47.734;9.244;2023-03-01T13:15:24;21.92;;;15.02;;
5718;SDS011;2884;47.734;9.244;2023-03-01T13:18:45;26.63;;;16.60;;
5718;SDS011;2884;47.734;9.244;2023-03-01T13:20:49;24.42;;;15.60;;
5718;SDS011;2884;47.734;9.244;2023-03-01T13:31:01;24.08;;;15.65;;
5718;SDS011;2884;47.734;9.244;2023-03-01T13:35:59;25.60;;;17.50;;
5718;SDS011;2884;47.734;9.244;2023-03-01T13:41:04;26.10;;;16.48;;
5718;SDS011;2884;47.734;9.244;2023-03-01T13:43:37;24.30;;;15.77;;
5718;SDS011;2884;47.734;9.244;2023-03-01T13:46:22;26.23;;;16.02;;
5718;SDS011;2884;47.734;9.244;2023-03-01T13:48:53;25.30;;;16.25;;
5718;SDS011;2884;47.734;9.244;2023-03-01T13:51:21;27.30;;;15.55;;
5718;SDS011;2884;47.734;9.244;2023-03-01T13:53:49;27.80;;;17.55;;
5718;SDS011;2884;47.734;9.244;2023-03-01T13:56:20;25.73;;;15.70;;
5718;SDS011;2884;47.734;9.244;2023-03-01T13:58:53;23.75;;;15.85;;
5718;SDS011;2884;47.734;9.244;2023-03-01T14:01:21;27.50;;;17.15;;
5718;SDS011;2884;47.734;9.244;2023-03-01T14:03:49;22.88;;;15.90;;
5718;SDS011;2884;47.734;9.244;2023-03-01T14:06:15;31.03;;;16.83;;
5718;SDS011;2884;47.734;9.244;2023-03-01T14:08:45;28.33;;;17.63;;
5718;SDS011;2884;47.734;9.244;2023-03-01T14:16:46;23.50;;;16.05;;
5718;SDS011;2884;47.734;9.244;2023-03-01T14:19:20;27.58;;;18.73;;
5718;SDS011;2884;47.734;9.244;2023-03-01T14:24:40;28.80;;;18.00;;
5718;SDS011;2884;47.734;9.244;2023-03-01T14:27:11;31.00;;;18.58;;
5718;SDS011;2884;47.734;9.244;2023-03-01T14:29:37;29.83;;;18.98;;
5718;SDS011;2884;47.734;9.244;2023-03-01T14:32:37;24.40;;;16.83;;
5718;SDS011;2884;47.734;9.244;2023-03-01T14:34:57;25.88;;;17.60;;
5718;SDS011;2884;47.734;9.244;2023-03-01T14:39:55;38.55;;;17.58;;
5718;SDS011;2884;47.734;9.244;2023-03-01T14:42:22;28.10;;;17.77;;
5718;SDS011;2884;47.734;9.244;2023-03-01T14:44:49;28.17;;;17.27;;
5718;SDS011;2884;47.734;9.244;2023-03-01T14:50:04;24.73;;;15.98;;
5718;SDS011;2884;47.734;9.244;2023-03-01T14:52:34;24.60;;;16.45;;
5718;SDS011;2884;47.734;9.244;2023-03-01T14:55:03;28.17;;;17.60;;
5718;SDS011;2884;47.734;9.244;2023-03-01T14:57:42;28.95;;;16.85;;
5718;SDS011;2884;47.734;9.244;2023-03-01T15:00:10;25.95;;;16.63;;
5718;SDS011;2884;47.734;9.244;2023-03-01T15:02:43;28.15;;;17.20;;
5718;SDS011;2884;47.734;9.244;2023-03-01T15:05:09;27.92;;;16.77;;
5718;SDS011;2884;47.734;9.244;2023-03-01T15:07:37;29.83;;;16.10;;
5718;SDS011;2884;47.734;9.244;2023-03-01T15:10:04;28.98;;;17.73;;
5718;SDS011;2884;47.734;9.244;2023-03-01T15:14:59;27.15;;;17.42;;
5718;SDS011;2884;47.734;9.244;2023-03-01T15:20:13;26.73;;;16.67;;
5718;SDS011;2884;47.734;9.244;2023-03-01T15:22:45;28.73;;;16.70;;
5718;SDS011;2884;47.734;9.244;2023-03-01T15:25:24;24.27;;;16.08;;
5718;SDS011;2884;47.734;9.244;2023-03-01T15:27:51;29.20;;;16.17;;
5718;SDS011;2884;47.734;9.244;2023-03-01T15:30:39;24.33;;;16.70;;
5718;SDS011;2884;47.734;9.244;2023-03-01T15:33:18;25.23;;;15.48;;
5718;SDS011;2884;47.734;9.244;2023-03-01T15:35:50;27.15;;;17.67;;
5718;SDS011;2884;47.734;9.244;2023-03-01T15:40:55;27.83;;;17.25;;
5718;SDS011;2884;47.734;9.244;2023-03-01T15:43:39;36.50;;;17.85;;
5718;SDS011;2884;47.734;9.244;2023-03-01T15:46:28;28.73;;;17.38;;
5718;SDS011;2884;47.734;9.244;2023-03-01T15:48:57;26.67;;;17.35;;
5718;SDS011;2884;47.734;9.244;2023-03-01T15:51:43;26.65;;;17.02;;
5718;SDS011;2884;47.734;9.244;2023-03-01T15:54:16;29.85;;;17.88;;
5718;SDS011;2884;47.734;9.244;2023-03-01T15:56:43;31.10;;;17.90;;
5718;SDS011;2884;47.734;9.244;2023-03-01T15:59:09;31.77;;;18.17;;
5718;SDS011;2884;47.734;9.244;2023-03-01T16:01:38;29.80;;;18.80;;
5718;SDS011;2884;47.734;9.244;2023-03-01T16:04:04;31.27;;;19.73;;
5718;SDS011;2884;47.734;9.244;2023-03-01T16:06:29;28.37;;;18.67;;
5718;SDS011;2884;47.734;9.244;2023-03-01T16:08:55;25.57;;;17.47;;
5718;SDS011;2884;47.734;9.244;2023-03-01T16:11:21;34.73;;;19.00;;
5718;SDS011;2884;47.734;9.244;2023-03-01T16:13:47;28.27;;;18.90;;
5718;SDS011;2884;47.734;9.244;2023-03-01T16:16:13;29.17;;;17.30;;
5718;SDS011;2884;47.734;9.244;2023-03-01T16:18:42;29.38;;;19.00;;
5718;SDS011;2884;47.734;9.244;2023-03-01T16:21:11;30.65;;;18.58;;
5718;SDS011;2884;47.734;9.244;2023-03-01T16:23:40;32.47;;;19.48;;
5718;SDS011;2884;47.734;9.244;2023-03-01T16:26:06;29.65;;;19.55;;
5718;SDS011;2884;47.734;9.244;2023-03-01T16:28:32;33.60;;;19.73;;
5718;SDS011;2884;47.734;9.244;2023-03-01T16:30:58;32.73;;;19.17;;
5718;SDS011;2884;47.734;9.244;2023-03-01T16:33:24;32.50;;;20.55;;
5718;SDS011;2884;47.734;9.244;2023-03-01T16:35:49;30.57;;;18.40;;
5718;SDS011;2884;47.734;9.244;2023-03-01T16:38:15;29.13;;;18.20;;
5718;SDS011;2884;47.734;9.244;2023-03-01T16:40:40;34.17;;;20.37;;
5718;SDS011;2884;47.734;9.244;2023-03-01T16:43:12;26.83;;;18.77;;
5718;SDS011;2884;47.734;9.244;2023-03-01T16:45:37;29.80;;;18.37;;
5718;SDS011;2884;47.734;9.244;2023-03-01T16:48:05;31.13;;;18.92;;
5718;SDS011;2884;47.734;9.244;2023-03-01T16:50:32;36.60;;;21.50;;
5718;SDS011;2884;47.734;9.244;2023-03-01T16:52:58;33.50;;;21.63;;
5718;SDS011;2884;47.734;9.244;2023-03-01T16:55:23;37.37;;;23.27;;
5718;SDS011;2884;47.734;9.244;2023-03-01T16:57:49;36.10;;;21.83;;
5718;SDS011;2884;47.734;9.244;2023-03-01T17:00:16;33.38;;;18.70;;
5718;SDS011;2884;47.734;9.244;2023-03-01T17:02:43;36.00;;;20.10;;
5718;SDS011;2884;47.734;9.244;2023-03-01T17:05:08;26.87;;;17.80;;
5718;SDS011;2884;47.734;9.244;2023-03-01T17:07:36;29.60;;;18.35;;
5718;SDS011;2884;47.734;9.244;2023-03-01T17:10:02;31.60;;;18.13;;
5718;SDS011;2884;47.734;9.244;2023-03-01T17:12:29;30.63;;;17.95;;
5718;SDS011;2884;47.734;9.244;2023-03-01T17:14:55;29.07;;;17.37;;